Time;durP1;ratioP1;P1;durP2;ratioP2;P2;SDS_P1;SDS_P2;PMS_P1;PMS_P2;Temp;Humidity;BMP_temperature;BMP_pressure;BME280_temperature;BME280_humidity;BME280_pressure;Samples;Min_cycle;Max_cycle;Signal;HPM_P1;HPM_P2
2023/01/16 00:01:59;;;;;;;5.80;1.30;;;7.30;99.90;;;;;;4913235;29;20483;-69
2023/01/16 00:04:25;;;;;;;5.90;1.40;;;7.30;99.90;;;;;;4912510;29;20195;-70
2023/01/16 00:06:50;;;;;;;7.80;2.10;;;7.20;99.90;;;;;;4913594;29;20444;-69
2023/01/16 00:09:16;;;;;;;3.07;1.67;;;7.30;99.90;;;;;;4899480;29;20267;-69
2023/01/16 00:11:42;;;;;;;5.60;1.67;;;7.40;99.90;;;;;;4913742;29;20191;-69
2023/01/16 00:14:08;;;;;;;1.83;1.33;;;7.40;99.90;;;;;;4915800;29;20243;-69
2023/01/16 00:16:33;;;;;;;2.20;1.33;;;7.40;99.90;;;;;;4912610;29;20503;-69
2023/01/16 00:18:59;;;;;;;3.90;1.97;;;7.40;99.90;;;;;;4903967;29;20223;-69
2023/01/16 00:21:28;;;;;;;4.77;1.40;;;7.20;99.90;;;;;;4901105;29;20227;-69
2023/01/16 00:23:55;;;;;;;6.23;1.30;;;7.30;99.90;;;;;;4914544;29;20184;-69
2023/01/16 00:26:21;;;;;;;5.23;1.40;;;7.10;99.90;;;;;;4916830;29;20472;-71
2023/01/16 00:28:46;;;;;;;2.60;1.23;;;7.20;99.90;;;;;;4912233;29;20444;-71
2023/01/16 00:31:12;;;;;;;4.40;1.37;;;7.20;99.90;;;;;;4898807;29;20988;-71
2023/01/16 00:33:38;;;;;;;5.20;1.60;;;7.30;99.90;;;;;;4900569;29;20183;-71
2023/01/16 00:36:03;;;;;;;4.50;1.60;;;7.20;99.90;;;;;;4902306;29;20184;-71
2023/01/16 00:38:29;;;;;;;4.23;1.77;;;7.30;99.90;;;;;;4903887;29;20551;-70
2023/01/16 00:40:55;;;;;;;1.70;1.20;;;7.30;99.90;;;;;;4905373;29;21074;-69
2023/01/16 00:43:21;;;;;;;2.50;1.30;;;7.30;99.90;;;;;;4890243;29;20183;-70
2023/01/16 00:45:46;;;;;;;2.70;1.33;;;7.30;99.90;;;;;;4910201;29;20183;-68
2023/01/16 00:48:13;;;;;;;3.30;1.40;;;7.40;99.90;;;;;;4909726;29;20180;-71
2023/01/16 00:50:39;;;;;;;2.07;1.10;;;7.30;99.90;;;;;;4903317;29;20191;-71
2023/01/16 00:53:04;;;;;;;4.07;1.50;;;7.30;99.90;;;;;;4882195;29;20432;-70
2023/01/16 00:55:33;;;;;;;5.80;1.67;;;7.20;99.90;;;;;;4898583;29;20192;-70
2023/01/16 00:57:58;;;;;;;4.30;2.00;;;7.30;99.90;;;;;;4910306;29;20298;-70
2023/01/16 01:00:25;;;;;;;1.40;1.00;;;7.40;99.90;;;;;;4912641;29;20552;-70
2023/01/16 01:02:50;;;;;;;2.20;1.00;;;7.50;99.90;;;;;;4911180;29;20207;-71
2023/01/16 01:05:16;;;;;;;3.67;1.47;;;7.40;99.90;;;;;;4908869;29;20440;-71
2023/01/16 01:07:42;;;;;;;5.97;1.80;;;7.40;99.90;;;;;;4907726;29;20188;-71
2023/01/16 01:10:08;;;;;;;2.00;1.13;;;7.40;99.90;;;;;;4906045;29;20203;-71
2023/01/16 01:12:34;;;;;;;2.80;1.20;;;7.40;99.90;;;;;;4904118;29;20585;-71
2023/01/16 01:14:59;;;;;;;5.17;1.43;;;7.40;99.90;;;;;;4885835;29;20445;-71
2023/01/16 01:17:25;;;;;;;2.40;1.07;;;7.40;99.90;;;;;;4900956;29;20537;-70
2023/01/16 01:19:50;;;;;;;4.80;1.10;;;7.40;99.90;;;;;;4899226;29;20279;-70
2023/01/16 01:22:16;;;;;;;1.67;0.80;;;7.40;99.90;;;;;;4897957;29;20258;-70
2023/01/16 01:24:42;;;;;;;2.10;1.27;;;7.30;99.90;;;;;;4899308;29;20179;-70
2023/01/16 01:27:07;;;;;;;4.20;1.47;;;7.30;99.90;;;;;;4901274;29;20271;-70
2023/01/16 01:29:33;;;;;;;4.30;1.63;;;7.30;99.90;;;;;;4902874;29;20487;-70
2023/01/16 05:32:29;;;;;;;4.37;1.20;;;6.70;99.90;;;;;;4994225;23;20495;-72
2023/01/16 05:34:55;;;;;;;2.27;1.30;;;6.70;99.90;;;;;;4911714;29;20447;-71
2023/01/16 05:37:20;;;;;;;1.63;1.53;;;6.80;99.90;;;;;;4910044;29;20235;-69
2023/01/16 05:39:46;;;;;;;8.13;4.13;;;6.80;99.90;;;;;;4908322;29;20252;-70
2023/01/16 05:42:20;;;;;;;3.30;1.43;;;6.80;99.90;;;;;;4905682;29;20344;-70
2023/01/16 05:44:48;;;;;;;6.93;1.50;;;7.00;99.90;;;;;;4905600;29;20184;-69
2023/01/16 05:47:13;;;;;;;4.40;1.50;;;7.00;99.90;;;;;;4903310;29;20454;-70
2023/01/16 05:49:39;;;;;;;1.50;1.20;;;7.10;99.90;;;;;;4901150;29;20531;-71
2023/01/16 05:52:05;;;;;;;3.30;1.57;;;7.00;99.90;;;;;;4901466;29;20648;-71
2023/01/16 05:54:30;;;;;;;6.63;1.13;;;7.10;99.90;;;;;;4901323;29;20196;-71
2023/01/16 05:56:56;;;;;;;2.77;1.33;;;7.00;99.90;;;;;;4901079;29;20192;-70
2023/01/16 05:59:21;;;;;;;3.60;1.10;;;7.10;99.90;;;;;;4902831;29;20216;-70
2023/01/16 06:01:47;;;;;;;4.97;1.23;;;7.10;99.90;;;;;;4907369;29;20219;-70
2023/01/16 06:04:12;;;;;;;3.17;1.00;;;7.20;99.90;;;;;;4917022;29;20207;-71
2023/01/16 06:06:38;;;;;;;1.50;1.00;;;7.10;99.90;;;;;;4916287;29;20643;-72
2023/01/16 06:09:03;;;;;;;1.90;1.10;;;7.00;99.90;;;;;;4918062;29;20186;-70
2023/01/16 06:11:29;;;;;;;1.93;1.77;;;7.00;99.90;;;;;;4913379;29;20192;-71
2023/01/16 06:13:55;;;;;;;1.97;1.87;;;7.10;99.90;;;;;;4915344;29;20188;-71
2023/01/16 06:16:22;;;;;;;2.40;0.80;;;7.10;99.90;;;;;;4904720;29;20202;-71
2023/01/16 06:18:48;;;;;;;3.53;1.03;;;6.90;99.90;;;;;;4903168;29;20479;-71
2023/01/16 06:21:14;;;;;;;2.10;1.20;;;6.90;99.90;;;;;;4901295;29;20494;-71
2023/01/16 06:23:40;;;;;;;1.33;0.87;;;7.00;99.90;;;;;;4914697;29;20431;-71
2023/01/16 06:26:09;;;;;;;2.23;1.17;;;6.90;99.90;;;;;;4899328;29;20447;-71
2023/01/16 06:28:37;;;;;;;2.23;0.90;;;7.00;99.90;;;;;;4906270;29;20192;-71
2023/01/16 06:31:04;;;;;;;1.73;0.90;;;7.00;99.90;;;;;;4913840;29;20962;-71
2023/01/16 06:33:30;;;;;;;2.60;1.03;;;7.00;99.90;;;;;;4913915;29;20539;-70
2023/01/16 06:35:56;;;;;;;3.93;1.47;;;7.00;99.90;;;;;;4915229;29;20528;-71
2023/01/16 06:38:22;;;;;;;2.30;0.93;;;7.10;99.90;;;;;;4916315;29;20472;-70
2023/01/16 06:40:48;;;;;;;2.40;1.10;;;7.10;99.90;;;;;;4917291;29;20576;-70
2023/01/16 06:43:15;;;;;;;4.43;1.23;;;7.10;99.90;;;;;;4916831;29;20439;-72
2023/01/16 06:45:40;;;;;;;2.30;0.80;;;7.20;99.90;;;;;;4915660;29;20270;-72
2023/01/16 06:48:06;;;;;;;1.80;1.00;;;7.10;99.90;;;;;;4914523;29;20966;-72
2023/01/16 06:50:31;;;;;;;1.50;1.10;;;7.20;99.90;;;;;;4912551;29;20179;-72
2023/01/16 06:52:57;;;;;;;2.07;1.30;;;7.20;99.90;;;;;;4914512;29;20703;-70
2023/01/16 06:55:23;;;;;;;5.40;1.50;;;7.30;99.90;;;;;;4903992;29;20915;-69
2023/01/16 06:57:48;;;;;;;2.97;1.23;;;7.40;99.90;;;;;;4905102;29;20439;-71
2023/01/16 07:00:14;;;;;;;1.30;1.20;;;7.30;99.90;;;;;;4907582;29;20792;-71
2023/01/16 07:02:40;;;;;;;2.50;1.10;;;7.40;99.90;;;;;;4910295;29;20192;-71
2023/01/16 07:05:10;;;;;;;1.10;0.80;;;7.30;99.90;;;;;;4908809;29;20448;-72
2023/01/16 07:07:36;;;;;;;1.80;1.47;;;7.20;99.90;;;;;;4891577;29;20445;-72
2023/01/16 07:10:03;;;;;;;2.30;1.00;;;7.20;99.90;;;;;;4913947;29;20813;-72
2023/01/16 07:12:29;;;;;;;5.53;1.47;;;7.20;99.90;;;;;;4916048;29;21034;-71
2023/01/16 07:23:18;;;;;;;1.30;1.13;;;7.20;99.90;;;;;;4915124;29;20973;-72
2023/01/16 07:25:44;;;;;;;3.10;1.33;;;7.20;99.90;;;;;;4912959;29;20542;-71
2023/01/16 07:28:09;;;;;;;1.10;0.97;;;7.30;99.90;;;;;;4915934;29;20440;-75
2023/01/16 07:30:35;;;;;;;2.43;1.60;;;7.30;99.90;;;;;;4911787;29;20520;-74
2023/01/16 07:33:01;;;;;;;4.50;1.50;;;7.40;99.90;;;;;;4907651;29;20299;-70
2023/01/16 07:35:26;;;;;;;3.67;1.63;;;7.40;99.90;;;;;;4906224;29;20191;-71
2023/01/16 07:37:56;;;;;;;3.73;1.10;;;7.30;99.90;;;;;;4913994;29;20255;-70
2023/01/16 07:40:22;;;;;;;1.27;1.17;;;7.40;99.90;;;;;;4901293;29;20220;-69
2023/01/16 07:42:50;;;;;;;6.03;1.80;;;7.40;99.90;;;;;;4898830;29;20504;-70
2023/01/16 07:45:16;;;;;;;2.50;1.37;;;7.40;99.90;;;;;;4898110;29;20496;-71
2023/01/16 07:47:41;;;;;;;1.97;1.40;;;7.30;99.90;;;;;;4899828;29;20457;-68
2023/01/16 07:50:07;;;;;;;2.03;1.80;;;7.30;99.90;;;;;;4901364;29;20195;-69
2023/01/16 07:52:33;;;;;;;1.90;1.10;;;7.30;99.90;;;;;;4910996;29;20192;-70
2023/01/16 07:54:58;;;;;;;4.17;1.60;;;7.30;99.90;;;;;;4909757;29;20440;-70
2023/01/16 07:57:27;;;;;;;2.43;1.23;;;7.30;99.90;;;;;;4909024;29;20556;-71
2023/01/16 07:59:53;;;;;;;1.40;1.27;;;7.40;99.90;;;;;;4907289;29;20555;-69
2023/01/16 08:02:19;;;;;;;3.73;1.40;;;7.30;99.90;;;;;;4905452;29;20463;-69
2023/01/16 08:04:45;;;;;;;2.83;1.30;;;7.40;99.90;;;;;;4903976;29;20943;-70
2023/01/16 08:07:10;;;;;;;1.77;1.40;;;7.30;99.90;;;;;;4902240;29;20531;-70
2023/01/16 08:09:36;;;;;;;2.13;1.10;;;7.20;99.90;;;;;;4900661;29;20191;-70
2023/01/16 08:12:02;;;;;;;2.27;1.40;;;7.30;99.90;;;;;;4899238;29;20194;-70
2023/01/16 08:14:28;;;;;;;3.27;1.53;;;7.30;99.90;;;;;;4883419;29;20188;-69
2023/01/16 08:16:53;;;;;;;4.53;1.63;;;7.40;99.90;;;;;;4902071;29;20196;-70
2023/01/16 08:19:19;;;;;;;4.50;1.20;;;7.40;99.90;;;;;;4903591;29;20203;-69
2023/01/16 08:21:44;;;;;;;2.30;1.27;;;7.40;99.90;;;;;;4905413;29;20227;-70
2023/01/16 08:24:12;;;;;;;1.43;1.23;;;7.40;99.90;;;;;;4907038;29;20243;-70
2023/01/16 08:26:38;;;;;;;12.17;1.87;;;7.40;99.90;;;;;;4908697;29;20204;-70
2023/01/16 08:29:04;;;;;;;2.10;1.50;;;7.40;99.90;;;;;;4909899;29;20804;-70
2023/01/16 08:31:30;;;;;;;6.93;1.37;;;7.50;99.90;;;;;;4912322;29;20262;-70
2023/01/16 08:33:55;;;;;;;4.27;1.47;;;7.40;99.90;;;;;;4901498;29;20200;-70
2023/01/16 08:36:21;;;;;;;1.53;1.10;;;7.40;99.90;;;;;;4900559;29;20539;-70
2023/01/16 08:38:49;;;;;;;3.67;1.47;;;7.40;99.90;;;;;;4898823;29;20196;-70
2023/01/16 08:52:20;;;;;;;10.83;1.33;;;7.30;99.90;;;;;;4907834;29;20878;-69
2023/01/16 08:54:45;;;;;;;4.50;1.57;;;7.20;99.90;;;;;;4908567;29;20524;-69
2023/01/16 08:57:11;;;;;;;4.07;1.53;;;7.10;99.90;;;;;;4910198;29;20778;-69
2023/01/16 08:59:36;;;;;;;1.23;0.93;;;7.20;99.90;;;;;;4912055;29;20187;-69
2023/01/16 09:02:04;;;;;;;3.13;1.73;;;7.20;99.90;;;;;;4913217;29;20284;-69
2023/01/16 09:04:29;;;;;;;4.00;1.30;;;7.10;99.90;;;;;;4911853;29;20222;-69
2023/01/16 09:06:55;;;;;;;1.53;0.97;;;7.10;99.90;;;;;;4908938;29;20479;-70
2023/01/16 09:09:20;;;;;;;3.60;1.63;;;7.20;99.90;;;;;;4914887;29;20199;-70
2023/01/16 09:14:36;;;;;;;12.00;1.33;;;7.20;99.90;;;;;;4911151;29;20219;-70
2023/01/16 09:17:02;;;;;;;4.30;1.70;;;7.10;99.90;;;;;;4909341;29;20443;-70
2023/01/16 09:19:27;;;;;;;4.77;2.80;;;7.20;99.90;;;;;;4907474;29;20277;-69
2023/01/16 09:21:53;;;;;;;6.20;3.10;;;7.20;99.90;;;;;;4905957;29;20588;-69
2023/01/16 09:24:19;;;;;;;9.13;2.30;;;7.20;99.90;;;;;;4904510;29;20666;-69
2023/01/16 09:26:44;;;;;;;2.50;1.70;;;7.20;99.90;;;;;;4902250;29;20621;-69
2023/01/16 09:29:10;;;;;;;4.60;1.90;;;7.00;99.90;;;;;;4913191;29;20183;-68
2023/01/16 09:31:35;;;;;;;5.13;2.23;;;7.10;99.90;;;;;;4914613;29;20318;-70
2023/01/16 09:34:01;;;;;;;3.90;1.97;;;7.10;99.90;;;;;;4915740;29;20199;-70
2023/01/16 09:36:26;;;;;;;2.67;1.53;;;7.10;99.90;;;;;;4914374;29;20238;-70
2023/01/16 09:38:53;;;;;;;2.80;1.97;;;7.20;99.90;;;;;;4903476;29;20196;-70
2023/01/16 09:44:08;;;;;;;7.13;1.47;;;7.20;99.90;;;;;;4909583;29;20540;-69
2023/01/16 09:46:40;;;;;;;3.53;1.57;;;7.20;99.90;;;;;;4907943;29;20820;-69
2023/01/16 09:49:21;;;;;;;1.53;0.93;;;7.10;99.90;;;;;;4906796;29;20559;-69
2023/01/16 10:00:17;;;;;;;3.87;1.40;;;7.10;99.90;;;;;;4912600;29;20470;-69
2023/01/16 10:02:43;;;;;;;4.23;1.37;;;7.10;99.90;;;;;;4915149;29;20479;-70
2023/01/16 10:05:11;;;;;;;3.10;1.27;;;7.00;99.90;;;;;;4912947;29;20436;-70
2023/01/16 10:07:55;;;;;;;2.17;1.07;;;7.00;99.90;;;;;;4911423;29;20451;-71
2023/01/16 10:10:40;;;;;;;1.63;0.90;;;7.00;99.90;;;;;;4909063;29;20968;-70
2023/01/16 10:13:26;;;;;;;1.53;0.87;;;6.90;99.90;;;;;;4907733;29;20449;-69
2023/01/16 10:16:04;;;;;;;2.07;0.90;;;6.90;99.90;;;;;;4906735;29;20442;-69
2023/01/16 10:18:51;;;;;;;1.50;1.00;;;6.80;99.90;;;;;;4904268;29;20868;-70
2023/01/16 10:21:39;;;;;;;1.10;0.80;;;6.80;99.90;;;;;;4902517;29;20480;-70
2023/01/16 10:24:22;;;;;;;2.13;0.93;;;6.80;99.90;;;;;;4900089;29;20443;-69
2023/01/16 10:26:58;;;;;;;3.00;1.20;;;6.80;99.90;;;;;;4908167;29;20450;-69
2023/01/16 10:29:30;;;;;;;3.80;1.20;;;6.70;99.90;;;;;;4913806;29;20939;-69
2023/01/16 10:32:24;;;;;;;3.07;1.10;;;6.80;99.90;;;;;;4913603;29;20535;-70
2023/01/16 10:34:56;;;;;;;3.90;1.27;;;6.80;99.90;;;;;;4911808;29;20794;-71
2023/01/16 10:37:23;;;;;;;2.67;1.00;;;6.70;99.90;;;;;;4910913;29;20961;-70
2023/01/16 10:39:50;;;;;;;1.73;0.93;;;6.70;99.90;;;;;;4911988;29;20444;-70
2023/01/16 10:50:47;;;;;;;2.17;0.80;;;6.70;99.90;;;;;;4903876;29;20503;-77
2023/01/16 10:53:13;;;;;;;2.50;0.90;;;6.70;99.90;;;;;;4901944;29;20475;-72
2023/01/16 10:55:43;;;;;;;2.67;1.10;;;6.70;99.90;;;;;;4900778;29;20875;-74
2023/01/16 10:58:35;;;;;;;1.87;1.00;;;6.80;99.90;;;;;;4901743;29;20848;-73
2023/01/16 11:01:02;;;;;;;6.30;1.20;;;6.80;99.90;;;;;;4903310;29;20990;-73
2023/01/16 11:03:36;;;;;;;1.30;0.73;;;6.70;99.90;;;;;;4905352;29;20447;-74
2023/01/16 11:06:26;;;;;;;1.63;0.93;;;6.80;99.90;;;;;;4910650;29;20534;-74
2023/01/16 11:08:54;;;;;;;2.03;0.93;;;6.80;99.90;;;;;;4903731;29;20449;-74
2023/01/16 11:20:11;;;;;;;1.97;0.70;;;7.00;99.90;;;;;;4917013;29;20550;-76
2023/01/16 11:22:39;;;;;;;3.83;1.37;;;7.10;99.90;;;;;;4918125;29;20456;-75
2023/01/16 11:25:06;;;;;;;1.40;0.83;;;7.10;99.90;;;;;;4913018;29;20570;-75
2023/01/16 11:27:36;;;;;;;1.20;1.00;;;7.10;99.90;;;;;;4902499;29;20467;-74
2023/01/16 11:30:14;;;;;;;1.10;0.70;;;7.10;99.90;;;;;;4907044;29;20425;-74
2023/01/16 11:32:47;;;;;;;2.10;0.90;;;7.20;99.90;;;;;;4905934;29;20511;-75
2023/01/16 11:35:15;;;;;;;1.40;0.80;;;7.10;99.90;;;;;;4890989;29;20499;-74
2023/01/16 11:37:44;;;;;;;1.53;0.83;;;7.10;99.90;;;;;;4909363;29;20466;-75
2023/01/16 11:40:25;;;;;;;1.40;1.10;;;7.20;99.90;;;;;;4906615;29;20452;-75
2023/01/16 11:46:02;;;;;;;1.83;0.80;;;7.30;99.90;;;;;;4902546;29;20499;-76
2023/01/16 11:48:52;;;;;;;2.17;0.90;;;7.40;99.90;;;;;;4898768;29;20872;-75
2023/01/16 11:51:23;;;;;;;1.27;0.73;;;7.40;99.90;;;;;;4898690;29;20845;-75
2023/01/16 11:53:50;;;;;;;1.00;0.80;;;7.40;99.90;;;;;;4900069;29;20469;-75
2023/01/16 11:56:47;;;;;;;1.30;1.03;;;7.40;99.90;;;;;;4901718;29;20463;-75
2023/01/16 11:59:23;;;;;;;1.90;1.10;;;7.40;99.90;;;;;;4903193;29;20928;-75
2023/01/16 12:02:16;;;;;;;2.23;0.90;;;7.50;99.90;;;;;;4905423;29;20537;-75
2023/01/16 12:08:25;;;;;;;1.13;0.70;;;7.70;99.90;;;;;;4905874;29;20432;-75
2023/01/16 12:11:06;;;;;;;0.97;0.77;;;7.60;99.90;;;;;;4903903;29;20495;-75
2023/01/16 12:16:50;;;;;;;1.20;0.80;;;7.50;99.90;;;;;;4909304;29;20426;-75
2023/01/16 12:19:38;;;;;;;2.30;0.93;;;7.60;99.90;;;;;;4899636;29;20925;-74
2023/01/16 12:22:06;;;;;;;2.10;0.80;;;7.40;99.90;;;;;;4914530;29;20506;-73
2023/01/16 12:24:39;;;;;;;3.37;0.80;;;7.40;99.90;;;;;;4903197;29;20452;-72
2023/01/16 12:27:29;;;;;;;1.20;0.80;;;7.40;99.90;;;;;;4904796;29;20438;-72
2023/01/16 12:30:06;;;;;;;1.53;0.77;;;7.40;99.90;;;;;;4906772;29;20441;-73
2023/01/16 12:33:13;;;;;;;1.20;0.77;;;7.40;99.90;;;;;;4906952;29;20483;-70
2023/01/16 12:35:47;;;;;;;0.90;0.70;;;7.30;99.90;;;;;;4904982;29;20491;-72
2023/01/16 12:38:42;;;;;;;3.80;1.03;;;7.40;99.90;;;;;;4903369;29;20472;-72
2023/01/16 12:44:04;;;;;;;3.73;1.20;;;7.40;99.90;;;;;;4899211;29;20458;-72
2023/01/16 12:46:48;;;;;;;3.13;1.00;;;7.30;99.90;;;;;;4899159;29;20429;-72
2023/01/16 12:49:49;;;;;;;1.00;0.77;;;7.40;99.90;;;;;;4900989;29;20184;-73
2023/01/16 12:52:24;;;;;;;1.30;0.77;;;7.60;99.90;;;;;;4903020;29;20433;-72
2023/01/16 12:55:04;;;;;;;0.90;0.70;;;7.60;99.90;;;;;;4904891;29;20435;-72
2023/01/16 12:57:59;;;;;;;0.90;0.80;;;7.60;99.90;;;;;;4906494;29;20523;-72
2023/01/16 13:00:37;;;;;;;1.13;0.87;;;7.60;99.90;;;;;;4907202;29;20456;-73
2023/01/16 13:03:27;;;;;;;2.47;0.93;;;7.60;99.90;;;;;;4904762;29;20471;-72
2023/01/16 13:05:56;;;;;;;1.60;1.00;;;7.60;99.90;;;;;;4902088;29;20451;-72
2023/01/16 13:08:43;;;;;;;1.40;0.87;;;7.40;99.90;;;;;;4913687;29;20428;-72
2023/01/16 13:14:10;;;;;;;2.40;0.90;;;7.40;99.90;;;;;;4906174;29;20523;-71
2023/01/16 13:17:02;;;;;;;1.67;0.90;;;7.10;99.90;;;;;;4883945;29;20943;-73
2023/01/16 13:19:31;;;;;;;1.40;1.20;;;7.10;99.90;;;;;;4902366;29;20469;-73
2023/01/16 13:22:06;;;;;;;1.10;0.87;;;7.40;99.90;;;;;;4904916;29;20532;-74
2023/01/16 13:24:35;;;;;;;1.30;0.80;;;7.40;99.90;;;;;;4909238;29;20475;-73
2023/01/16 13:27:03;;;;;;;3.47;1.10;;;7.50;99.90;;;;;;4909133;29;20447;-71
2023/01/16 13:29:37;;;;;;;0.90;0.60;;;7.60;99.90;;;;;;4909420;29;20432;-71
2023/01/16 13:32:33;;;;;;;3.03;1.00;;;7.40;99.90;;;;;;4902942;29;20491;-71
2023/01/16 13:35:34;;;;;;;1.03;0.80;;;7.20;99.90;;;;;;4901075;29;20444;-72
2023/01/16 13:38:35;;;;;;;1.50;1.20;;;7.20;99.90;;;;;;4901250;29;20839;-71
2023/01/16 13:41:14;;;;;;;1.67;0.80;;;7.00;99.90;;;;;;4909073;29;20917;-71
2023/01/16 13:46:33;;;;;;;1.67;1.03;;;6.90;99.90;;;;;;4910708;29;20991;-73
2023/01/16 13:49:02;;;;;;;1.20;1.00;;;6.80;99.90;;;;;;4912281;29;20864;-73
2023/01/16 13:51:28;;;;;;;1.60;1.00;;;6.80;99.90;;;;;;4913521;29;20476;-76
2023/01/16 13:54:03;;;;;;;1.50;0.80;;;6.80;99.90;;;;;;4912772;29;20471;-74
2023/01/16 13:56:30;;;;;;;1.10;0.70;;;6.80;99.90;;;;;;4913751;29;20439;-73
2023/01/16 13:59:08;;;;;;;2.13;0.90;;;6.80;99.90;;;;;;4910498;29;21069;-73
2023/01/16 14:01:39;;;;;;;1.53;0.83;;;6.80;99.90;;;;;;4910255;29;21025;-73
2023/01/16 14:04:11;;;;;;;1.30;0.80;;;6.70;99.90;;;;;;4907827;29;20440;-73
2023/01/16 14:10:07;;;;;;;1.10;0.70;;;6.70;99.90;;;;;;4910424;29;20964;-73
2023/01/16 14:12:46;;;;;;;4.37;0.90;;;6.60;99.90;;;;;;4896590;29;20443;-73
2023/01/16 14:18:19;;;;;;;3.93;1.43;;;6.50;99.90;;;;;;4911639;29;20441;-75
2023/01/16 14:20:47;;;;;;;1.00;0.90;;;6.60;99.90;;;;;;4909859;29;20500;-75
2023/01/16 14:26:22;;;;;;;1.17;0.80;;;6.60;99.90;;;;;;4906291;29;20465;-75
2023/01/16 14:28:54;;;;;;;1.43;0.97;;;6.50;99.90;;;;;;4904217;29;20445;-75
2023/01/16 14:31:44;;;;;;;3.63;1.90;;;6.60;99.90;;;;;;4902811;29;20519;-75
2023/01/16 14:34:18;;;;;;;2.50;1.27;;;6.70;99.90;;;;;;4899222;29;20449;-74
2023/01/16 14:36:47;;;;;;;1.30;1.00;;;6.70;99.90;;;;;;4902419;29;20508;-75
2023/01/16 14:39:27;;;;;;;1.53;0.93;;;6.70;99.90;;;;;;4903729;29;20489;-75
2023/01/16 14:57:06;;;;;;;2.30;0.90;;;6.50;99.90;;;;;;4903957;29;20941;-75
2023/01/16 14:59:49;;;;;;;1.10;1.00;;;6.40;99.90;;;;;;4901554;29;20489;-74
2023/01/16 15:02:40;;;;;;;1.73;1.03;;;6.50;99.90;;;;;;4906632;29;20486;-75
2023/01/16 15:05:49;;;;;;;1.30;1.10;;;6.50;99.90;;;;;;4915803;29;20561;-77
2023/01/16 15:08:15;;;;;;;1.63;1.10;;;6.40;99.90;;;;;;4910647;29;20707;-77
2023/01/16 15:10:42;;;;;;;2.33;1.00;;;6.50;99.90;;;;;;4911718;29;20534;-74
2023/01/16 15:22:18;;;;;;;1.40;1.00;;;6.40;99.90;;;;;;4918995;29;20503;-74
2023/01/16 15:24:52;;;;;;;1.30;1.20;;;6.50;99.90;;;;;;4900481;29;20461;-71
2023/01/16 15:27:29;;;;;;;1.13;1.00;;;6.50;99.90;;;;;;4901914;29;20469;-76
2023/01/16 15:30:17;;;;;;;2.13;1.40;;;6.50;99.90;;;;;;4899220;29;20451;-75
2023/01/16 15:35:54;;;;;;;1.33;1.23;;;6.50;99.90;;;;;;4906003;29;20806;-75
2023/01/16 15:38:19;;;;;;;3.57;1.23;;;6.50;99.90;;;;;;4904979;29;20535;-70
2023/01/16 15:40:51;;;;;;;1.60;1.20;;;6.50;99.90;;;;;;4909582;29;20583;-72
2023/01/16 15:49:27;;;;;;;3.67;1.73;;;6.40;99.90;;;;;;4911980;29;20427;-74
2023/01/16 15:51:53;;;;;;;1.67;1.30;;;6.50;99.90;;;;;;4869086;29;20527;-74
2023/01/16 15:54:19;;;;;;;1.10;1.00;;;6.60;99.90;;;;;;4900403;29;20441;-73
2023/01/16 15:56:46;;;;;;;1.57;1.30;;;6.40;99.90;;;;;;4916875;29;20415;-74
2023/01/16 15:59:28;;;;;;;1.63;1.43;;;6.50;99.90;;;;;;4914665;29;20191;-75
2023/01/16 16:02:07;;;;;;;2.07;1.50;;;6.60;99.90;;;;;;4912953;29;21315;-73
2023/01/16 16:04:33;;;;;;;1.87;1.50;;;6.60;99.90;;;;;;4903257;29;20495;-75
2023/01/16 16:06:59;;;;;;;1.57;1.43;;;6.60;99.90;;;;;;4904925;29;20471;-74
2023/01/16 16:09:27;;;;;;;4.30;1.40;;;6.70;99.90;;;;;;4906515;29;20222;-73
2023/01/16 16:11:53;;;;;;;3.40;1.90;;;6.70;99.90;;;;;;4905889;29;20201;-81
2023/01/16 16:20:24;;;;;;;3.27;1.83;;;6.70;99.90;;;;;;4913838;29;20434;-83
2023/01/16 16:22:51;;;;;;;1.67;1.53;;;6.70;99.90;;;;;;4899732;29;20520;-77
2023/01/16 16:25:53;;;;;;;2.53;1.73;;;6.70;99.90;;;;;;4915283;29;20439;-74
2023/01/16 16:28:32;;;;;;;1.50;1.30;;;6.80;99.90;;;;;;4900831;29;20508;-80
2023/01/16 16:31:12;;;;;;;1.70;1.60;;;6.80;99.90;;;;;;4912232;29;20996;-75
2023/01/16 16:33:39;;;;;;;1.43;1.30;;;6.90;99.90;;;;;;4903806;29;20460;-75
2023/01/16 16:36:04;;;;;;;1.63;1.47;;;7.00;99.90;;;;;;4891176;29;20429;-78
2023/01/16 16:38:43;;;;;;;1.67;1.13;;;6.90;99.90;;;;;;4906073;29;20450;-78
2023/01/16 16:41:09;;;;;;;1.70;1.60;;;6.90;99.90;;;;;;4906347;29;20199;-79
2023/01/16 16:43:46;;;;;;;1.57;1.47;;;6.80;99.90;;;;;;4904048;29;20445;-82
2023/01/16 16:46:27;;;;;;;1.40;1.20;;;6.90;99.90;;;;;;4902387;29;20552;-84
2023/01/16 16:48:58;;;;;;;4.93;1.70;;;6.90;99.90;;;;;;4899464;29;20479;-76
2023/01/16 16:51:28;;;;;;;2.20;1.50;;;7.00;99.90;;;;;;4897882;29;20432;-73
2023/01/16 16:53:57;;;;;;;4.13;1.60;;;7.00;99.90;;;;;;4882085;29;20777;-73
2023/01/16 16:56:26;;;;;;;1.40;1.27;;;7.00;99.90;;;;;;4900564;29;20425;-73
2023/01/16 16:58:52;;;;;;;1.73;1.30;;;7.00;99.90;;;;;;4885126;29;20922;-71
2023/01/16 17:01:20;;;;;;;2.47;1.60;;;6.90;99.90;;;;;;4908266;29;20476;-75
2023/01/16 17:03:48;;;;;;;1.80;1.13;;;6.90;99.90;;;;;;4909338;29;20183;-73
2023/01/16 17:06:27;;;;;;;3.00;1.60;;;6.90;99.90;;;;;;4906817;29;20495;-75
2023/01/16 17:08:52;;;;;;;6.93;4.20;;;6.90;99.90;;;;;;4908896;29;20827;-76
2023/01/16 17:11:18;;;;;;;2.40;2.00;;;7.00;99.90;;;;;;4913035;29;20448;-74
2023/01/16 17:13:43;;;;;;;2.50;2.00;;;7.10;99.90;;;;;;4900218;29;20632;-72
2023/01/16 17:16:19;;;;;;;1.50;1.40;;;7.00;99.90;;;;;;4898336;29;20256;-74
2023/01/16 17:18:46;;;;;;;1.37;1.20;;;7.10;99.90;;;;;;4897140;29;20199;-72
2023/01/16 17:21:16;;;;;;;1.47;1.20;;;7.10;99.90;;;;;;4902582;29;20479;-72
2023/01/16 17:23:44;;;;;;;2.00;1.30;;;7.10;99.90;;;;;;4904436;29;20429;-73
2023/01/16 17:26:11;;;;;;;2.03;1.50;;;7.00;99.90;;;;;;4902119;29;20536;-71
2023/01/16 17:28:38;;;;;;;1.60;1.30;;;7.10;99.90;;;;;;4907344;29;20439;-71
2023/01/16 17:31:05;;;;;;;1.93;1.30;;;7.20;99.90;;;;;;4912243;29;20974;-72
2023/01/16 17:33:31;;;;;;;1.50;1.40;;;7.10;99.90;;;;;;4914136;29;20428;-74
2023/01/16 17:36:09;;;;;;;3.00;1.50;;;7.10;99.90;;;;;;4914176;29;20539;-74
2023/01/16 17:38:40;;;;;;;2.83;1.33;;;7.10;99.90;;;;;;4911765;29;20799;-74
2023/01/16 17:41:13;;;;;;;1.60;1.50;;;7.30;99.90;;;;;;4910656;29;20462;-73
2023/01/16 17:46:23;;;;;;;1.70;1.47;;;7.10;99.90;;;;;;4905631;29;20516;-73
2023/01/16 17:48:50;;;;;;;2.60;1.50;;;7.10;99.90;;;;;;4902130;29;21325;-73
2023/01/16 17:51:21;;;;;;;2.13;1.67;;;7.10;99.90;;;;;;4903752;29;20527;-73
2023/01/16 17:53:47;;;;;;;2.43;1.53;;;7.10;99.90;;;;;;4913713;29;20534;-72
2023/01/16 17:56:12;;;;;;;2.43;1.50;;;7.10;99.90;;;;;;4911820;29;20518;-72
2023/01/16 18:01:16;;;;;;;2.37;1.60;;;7.20;99.90;;;;;;4916965;29;20298;-71
2023/01/16 18:04:32;;;;;;;2.07;1.80;;;7.20;99.90;;;;;;4892765;29;20433;-72
2023/01/16 18:06:39;;;;;;;2.70;2.20;;;7.20;99.90;;;;;;4906239;29;20589;-73
2023/01/16 18:09:06;;;;;;;2.37;2.00;;;7.20;99.90;;;;;;4913030;29;20431;-71
2023/01/16 18:17:21;;;;;;;1.97;1.77;;;7.10;99.90;;;;;;4913966;29;20443;-70
2023/01/16 18:19:47;;;;;;;3.10;2.50;;;7.10;99.90;;;;;;4916149;29;21882;-69
2023/01/16 18:22:14;;;;;;;3.63;3.20;;;7.20;99.90;;;;;;4917761;29;20487;-69
2023/01/16 18:24:41;;;;;;;3.70;3.17;;;7.20;99.90;;;;;;4917155;29;20438;-70
2023/01/16 18:27:09;;;;;;;4.50;3.50;;;7.20;99.90;;;;;;4917263;29;20435;-69
2023/01/16 18:29:36;;;;;;;4.27;2.67;;;7.20;99.90;;;;;;4916862;29;20815;-69
2023/01/16 18:32:22;;;;;;;3.33;2.50;;;7.20;99.90;;;;;;4916141;29;20483;-70
2023/01/16 18:35:03;;;;;;;3.93;3.63;;;7.20;99.90;;;;;;4914318;29;20527;-70
2023/01/16 19:01:54;;;;;;;4.20;2.90;;;7.10;99.90;;;;;;4898780;29;20440;-71
2023/01/16 19:02:41;;;;;;;3.10;2.10;;;7.20;99.90;;;;;;4913770;29;20555;-71
2023/01/16 19:05:06;;;;;;;3.03;2.43;;;7.30;99.90;;;;;;4912983;29;20416;-73
2023/01/16 19:07:33;;;;;;;2.10;1.90;;;7.40;99.90;;;;;;4907861;29;20840;-73
2023/01/16 19:10:03;;;;;;;1.97;1.67;;;7.40;99.90;;;;;;4912062;29;20187;-74
2023/01/16 19:12:35;;;;;;;3.83;2.47;;;7.40;99.90;;;;;;4912948;29;20440;-74
2023/01/16 19:15:03;;;;;;;4.00;2.70;;;7.20;99.90;;;;;;4914311;29;20440;-75
2023/01/16 19:17:28;;;;;;;2.20;2.00;;;7.20;99.90;;;;;;4914881;29;20966;-75
2023/01/16 19:19:54;;;;;;;2.30;1.90;;;7.20;99.90;;;;;;4917514;29;20469;-75
2023/01/16 19:22:22;;;;;;;3.50;2.63;;;7.20;99.90;;;;;;4913832;29;20211;-74
2023/01/16 19:24:48;;;;;;;2.47;2.23;;;7.20;99.90;;;;;;4909230;29;20436;-75
2023/01/16 19:27:13;;;;;;;2.80;2.47;;;7.10;99.90;;;;;;4915178;29;21034;-75
2023/01/16 19:29:39;;;;;;;2.77;2.57;;;7.10;99.90;;;;;;4914321;29;20428;-74
2023/01/16 19:32:04;;;;;;;7.93;3.10;;;7.20;99.90;;;;;;4912116;29;20263;-72
2023/01/16 19:34:34;;;;;;;3.10;2.83;;;7.20;99.90;;;;;;4911796;29;20177;-73
2023/01/16 19:37:03;;;;;;;3.00;2.30;;;7.20;99.90;;;;;;4905002;29;20224;-73
2023/01/16 19:39:29;;;;;;;3.87;2.80;;;7.20;99.90;;;;;;4902019;29;20824;-76
2023/01/16 19:47:45;;;;;;;4.60;3.43;;;7.20;99.90;;;;;;4838790;29;20530;-71
2023/01/16 19:50:11;;;;;;;3.37;3.07;;;7.20;99.90;;;;;;4837530;29;20530;-71
2023/01/16 19:52:37;;;;;;;4.37;3.60;;;7.20;99.90;;;;;;4876371;29;20543;-71
2023/01/16 19:55:03;;;;;;;4.37;3.97;;;7.30;99.90;;;;;;4912933;29;20196;-71